Time;durP1;ratioP1;P1;durP2;ratioP2;P2;SDS_P1;SDS_P2;PMS_P1;PMS_P2;Temp;Humidity;BMP_temperature;BMP_pressure;BME280_temperature;BME280_humidity;BME280_pressure;Samples;Min_cycle;Max_cycle;Signal;HPM_P1;HPM_P2
2022/08/12 00:44:57;;;;;;;4.40;2.35;;;;;;;17.10;65.18;99458.91;6126780;23;20006;-93
2022/08/12 00:47:25;;;;;;;6.50;2.60;;;;;;;17.03;66.08;99463.19;6125877;23;20001;-93
2022/08/12 00:49:52;;;;;;;3.53;2.15;;;;;;;16.93;65.97;99451.44;6125183;23;20002;-94
2022/08/12 00:52:18;;;;;;;2.75;1.98;;;;;;;16.97;65.98;99454.31;6102065;23;20437;-94
2022/08/12 00:54:55;;;;;;;2.38;1.65;;;;;;;16.93;65.80;99456.06;6147955;23;20002;-93
2022/08/12 00:57:29;;;;;;;2.63;1.85;;;;;;;16.92;65.97;99460.69;6101872;23;20348;-93
2022/08/12 00:59:57;;;;;;;3.20;2.30;;;;;;;16.94;66.17;99449.53;6100824;23;20006;-92
2022/08/12 01:02:28;;;;;;;2.88;1.67;;;;;;;17.00;66.02;99461.88;6101068;23;20033;-94
2022/08/12 01:13:16;;;;;;;3.70;2.30;;;;;;;16.81;66.37;99453.06;6126769;23;20104;-92
2022/08/12 01:15:44;;;;;;;2.28;1.77;;;;;;;16.83;66.59;99456.28;6100557;23;20085;-93
2022/08/12 01:18:13;;;;;;;5.20;2.30;;;;;;;16.77;66.63;99450.16;6124530;23;20028;-93
2022/08/12 01:21:12;;;;;;;3.15;2.03;;;;;;;16.86;66.84;99466.56;6100554;23;20009;-93
2022/08/12 01:24:16;;;;;;;4.53;2.13;;;;;;;16.82;66.52;99463.66;6091017;23;20356;-92
2022/08/12 01:26:42;;;;;;;3.08;2.28;;;;;;;16.66;66.97;99441.41;6150573;23;20069;-93
2022/08/12 01:29:08;;;;;;;4.35;2.20;;;;;;;16.65;67.04;99442.53;6101303;23;19998;-93
2022/08/12 01:31:35;;;;;;;3.40;2.30;;;;;;;16.61;67.42;99441.53;6125723;23;20010;-94
2022/08/12 01:34:03;;;;;;;3.05;2.15;;;;;;;16.71;67.22;99457.63;6124845;23;20002;-92
2022/08/12 01:36:35;;;;;;;5.80;2.60;;;;;;;16.57;67.21;99432.38;6125814;23;20080;-92
2022/08/12 01:39:01;;;;;;;4.15;2.30;;;;;;;16.57;67.28;99433.19;6101168;23;20037;-92
2022/08/12 01:41:30;;;;;;;2.90;2.15;;;;;;;16.59;67.49;99435.59;6101996;23;20026;-93
2022/08/12 01:44:00;;;;;;;3.55;1.95;;;;;;;16.54;67.31;99422.16;6126407;23;20004;-92
2022/08/12 01:46:52;;;;;;;3.40;2.20;;;;;;;16.57;67.63;99441.34;6100764;23;20045;-93
2022/08/12 01:49:41;;;;;;;3.70;2.20;;;;;;;16.64;67.46;99440.91;6101153;23;20001;-91
2022/08/12 01:52:06;;;;;;;3.17;2.40;;;;;;;16.55;67.98;99440.84;6126568;23;20072;-92
2022/08/12 01:55:05;;;;;;;5.72;2.40;;;;;;;16.53;67.95;99434.13;6100846;23;20006;-93
2022/08/12 01:57:40;;;;;;;3.80;2.28;;;;;;;16.39;68.01;99419.75;6128609;23;20031;-91
2022/08/12 02:00:12;;;;;;;3.58;2.30;;;;;;;16.22;68.40;99406.81;6106162;23;20064;-93
2022/08/12 02:03:02;;;;;;;3.58;2.30;;;;;;;16.30;67.81;99416.97;6105556;23;20002;-92
2022/08/12 02:11:27;;;;;;;4.40;2.22;;;;;;;16.28;68.96;99428.13;6133084;23;20056;-92
2022/08/12 02:13:54;;;;;;;3.17;1.92;;;;;;;16.34;68.45;99435.06;6128538;23;20005;-92
2022/08/12 02:16:31;;;;;;;3.22;2.22;;;;;;;16.40;68.54;99435.75;6129348;23;20064;-92
2022/08/12 02:19:34;;;;;;;5.68;2.20;;;;;;;16.30;68.45;99442.22;6128792;23;20096;-93
2022/08/12 02:22:37;;;;;;;3.53;2.45;;;;;;;16.26;68.53;99441.22;6103982;23;20502;-92
2022/08/12 02:25:15;;;;;;;2.70;2.10;;;;;;;16.09;68.64;99422.03;6128519;23;20005;-93
2022/08/12 02:27:51;;;;;;;4.95;2.28;;;;;;;16.08;68.49;99420.41;6077639;23;20437;-94
2022/08/12 02:30:22;;;;;;;2.30;1.77;;;;;;;16.03;69.02;99426.75;6100272;23;19998;-92
2022/08/12 02:32:50;;;;;;;3.00;2.10;;;;;;;16.10;69.07;99432.59;6100614;23;20040;-93
2022/08/12 02:35:22;;;;;;;2.75;2.08;;;;;;;16.22;68.62;99442.94;6124494;23;20005;-93
2022/08/12 02:37:51;;;;;;;3.05;2.28;;;;;;;16.21;68.32;99454.09;6124771;23;20008;-92
2022/08/12 02:40:18;;;;;;;4.53;2.20;;;;;;;16.07;68.71;99418.81;6125722;23;20014;-93
2022/08/12 02:42:50;;;;;;;3.05;2.50;;;;;;;16.25;68.63;99438.78;6124012;23;20026;-94
2022/08/12 02:45:16;;;;;;;;;;;;;;;16.31;68.26;99446.56;6149820;23;20002;-93
2022/08/12 02:47:42;;;;;;;4.65;2.38;;;;;;;16.28;68.67;99438.19;6124179;23;20255;-92
2022/08/12 02:50:09;;;;;;;4.57;2.42;;;;;;;16.31;68.16;99441.13;6100411;23;19994;-92
2022/08/12 02:52:35;;;;;;;2.88;2.38;;;;;;;16.30;68.37;99444.94;6124188;23;20424;-95
2022/08/12 02:55:16;;;;;;;3.55;2.25;;;;;;;16.26;68.34;99451.28;6124926;23;20009;-92
2022/08/12 02:57:43;;;;;;;5.35;2.47;;;;;;;16.17;68.17;99451.19;6125257;23;19998;-92
2022/08/12 03:00:12;;;;;;;6.72;2.58;;;;;;;16.14;68.43;99454.50;6101432;23;20036;-92
2022/08/12 03:02:38;;;;;;;6.40;2.72;;;;;;;16.08;68.77;99466.59;6101858;23;20001;-92
2022/08/12 03:05:05;;;;;;;4.32;2.58;;;;;;;15.94;68.56;99470.13;6125887;23;20036;-93
2022/08/12 03:07:37;;;;;;;2.78;2.28;;;;;;;15.81;69.38;99461.97;6102409;23;20002;-93
2022/08/12 03:10:08;;;;;;;;;;;;;;;15.83;69.52;99481.47;6103079;23;20318;-92
2022/08/12 03:12:35;;;;;;;4.93;2.25;;;;;;;15.72;69.62;99461.84;6128013;23;20036;-91
2022/08/12 03:15:04;;;;;;;3.50;2.10;;;;;;;15.84;69.49;99481.19;6103402;23;20417;-93
2022/08/12 03:17:44;;;;;;;6.75;2.10;;;;;;;15.69;69.82;99478.72;6103151;23;20093;-94
2022/08/12 03:20:16;;;;;;;3.97;2.58;;;;;;;15.57;70.24;99449.34;6102217;23;20033;-91
2022/08/12 03:22:41;;;;;;;;;;;;;;;15.72;69.95;99481.66;6126861;23;20026;-91
2022/08/12 03:25:15;;;;;;;3.08;2.05;;;;;;;15.59;70.08;99479.72;6125792;23;19905;-93
2022/08/12 03:27:48;;;;;;;4.35;2.17;;;;;;;15.42;70.63;99461.28;6102242;23;20010;-92
2022/08/12 03:30:18;;;;;;;6.28;2.72;;;;;;;15.41;70.48;99456.94;6103317;23;19998;-92
2022/08/12 03:32:47;;;;;;;3.83;2.17;;;;;;;15.39;70.63;99458.38;6127431;23;20082;-92
2022/08/12 03:35:12;;;;;;;3.65;2.20;;;;;;;15.45;70.65;99476.16;6127840;23;20030;-93
2022/08/12 03:37:40;;;;;;;3.55;2.60;;;;;;;15.50;70.36;99470.63;6103295;23;20357;-93
2022/08/12 03:41:33;;;;;;;3.55;2.50;;;;;;;15.45;70.45;99462.59;6127914;23;20006;-93
2022/08/12 04:02:14;;;;;;;5.03;2.58;;;;;;;15.66;70.24;99471.16;6127042;23;20068;-92
2022/08/12 04:04:43;;;;;;;5.32;3.05;;;;;;;15.61;69.92;99460.41;6127292;23;20013;-93
2022/08/12 04:07:10;;;;;;;4.00;2.50;;;;;;;15.58;70.01;99453.66;6103582;23;20012;-92
2022/08/12 04:09:59;;;;;;;4.45;2.75;;;;;;;15.54;69.68;99455.38;6102987;23;20001;-92
2022/08/12 04:15:34;;;;;;;3.17;2.20;;;;;;;15.68;69.80;99479.81;6101695;23;20017;-89
2022/08/12 04:18:01;;;;;;;4.95;2.53;;;;;;;15.60;69.90;99464.22;6101730;23;20017;-92
2022/08/12 04:20:26;;;;;;;7.60;3.03;;;;;;;15.64;69.90;99478.81;6072291;23;20034;-93
2022/08/12 04:22:53;;;;;;;4.50;2.40;;;;;;;15.70;69.74;99481.13;6071028;23;20014;-92
2022/08/12 04:25:21;;;;;;;5.18;2.35;;;;;;;15.79;69.59;99502.97;6072586;23;20006;-93
2022/08/12 04:27:48;;;;;;;4.38;2.47;;;;;;;15.83;69.65;99490.41;6072548;23;20053;-94
2022/08/12 04:30:14;;;;;;;5.32;2.67;;;;;;;15.95;68.84;99481.78;6072831;23;19998;-92
2022/08/12 04:32:40;;;;;;;12.48;5.35;;;;;;;16.17;68.45;99492.75;6096068;23;20037;-92
2022/08/12 04:35:06;;;;;;;7.20;2.47;;;;;;;16.24;68.15;99495.06;6043619;23;20002;-93
2022/08/12 04:37:32;;;;;;;4.07;2.20;;;;;;;16.25;67.44;99485.81;6047664;23;20361;-91
2022/08/12 04:39:58;;;;;;;5.40;2.30;;;;;;;16.26;67.72;99489.31;6070561;23;20014;-91
2022/08/12 04:42:25;;;;;;;4.20;2.75;;;;;;;16.34;67.42;99489.41;6074343;23;20026;-91
2022/08/12 04:44:51;;;;;;;4.05;2.17;;;;;;;16.34;67.34;99477.75;6127084;23;20008;-92
2022/08/12 04:47:18;;;;;;;4.30;2.40;;;;;;;16.50;67.13;99489.91;6123758;23;20468;-91
2022/08/12 04:49:44;;;;;;;2.97;2.33;;;;;;;16.41;67.43;99477.31;6124502;23;20036;-92
2022/08/12 04:52:12;;;;;;;5.35;2.63;;;;;;;16.47;67.10;99467.94;6133116;23;20017;-91
2022/08/12 04:54:39;;;;;;;6.15;2.88;;;;;;;16.62;66.86;99469.53;6135751;23;20065;-92
2022/08/12 04:57:17;;;;;;;6.72;2.83;;;;;;;16.54;66.53;99452.84;6133714;23;20061;-93
2022/08/12 04:59:46;;;;;;;3.47;2.65;;;;;;;16.85;66.61;99478.56;6131295;23;20033;-92
2022/08/12 05:02:12;;;;;;;22.42;15.65;;;;;;;16.83;66.17;99469.91;6101370;23;20441;-94
2022/08/12 05:04:39;;;;;;;6.03;3.13;;;;;;;17.01;66.26;99487.16;6127470;23;20014;-93
2022/08/12 05:07:07;;;;;;;4.35;2.70;;;;;;;17.08;65.24;99463.88;6103600;23;20465;-89
2022/08/12 05:09:33;;;;;;;9.40;3.30;;;;;;;17.26;64.78;99469.41;6124666;23;20344;-89
2022/08/12 05:12:03;;;;;;;5.03;2.58;;;;;;;17.45;64.19;99464.59;6129464;23;20005;-89
2022/08/12 05:14:30;;;;;;;6.88;2.90;;;;;;;17.47;63.88;99473.25;6128277;23;19997;-94
2022/08/12 05:16:59;;;;;;;5.40;3.80;;;;;;;17.43;64.44;99461.38;6101987;23;20009;-93
2022/08/12 05:19:25;;;;;;;7.22;2.60;;;;;;;17.66;63.36;99461.28;6126770;23;20006;-96
2022/08/12 05:21:51;;;;;;;2.60;2.15;;;;;;;17.92;62.67;99475.88;6108593;23;20006;-93
2022/08/12 05:24:17;;;;;;;3.97;2.38;;;;;;;17.85;62.23;99469.28;6127447;23;20009;-95
2022/08/12 05:26:48;;;;;;;3.95;2.65;;;;;;;17.80;62.94;99459.28;6103740;23;20373;-96
2022/08/12 05:29:15;;;;;;;4.43;2.47;;;;;;;17.85;62.87;99464.63;6128473;23;20049;-95
2022/08/12 05:31:41;;;;;;;2.75;2.03;;;;;;;17.81;62.49;99466.34;6130708;23;20064;-96
2022/08/12 05:34:13;;;;;;;5.28;2.25;;;;;;;17.97;62.45;99467.56;6109450;23;20002;-95
2022/08/12 05:36:40;;;;;;;3.15;2.45;;;;;;;18.35;61.33;99461.56;6133591;23;20065;-91
2022/08/12 05:39:07;;;;;;;4.20;2.45;;;;;;;18.60;60.19;99478.28;6100079;23;20023;-88
2022/08/12 05:41:34;;;;;;;3.60;2.50;;;;;;;18.57;60.60;99466.09;6149652;23;20470;-92
2022/08/12 05:44:02;;;;;;;3.25;2.22;;;;;;;18.76;59.80;99465.78;6125142;23;20012;-89
2022/08/12 05:46:29;;;;;;;4.80;2.50;;;;;;;18.80;60.14;99463.25;6148579;23;20013;-91
2022/08/12 05:48:59;;;;;;;5.78;2.90;;;;;;;18.89;59.65;99468.69;6124412;23;20001;-87
2022/08/12 05:51:34;;;;;;;10.50;3.55;;;;;;;18.97;59.85;99474.16;6100063;23;20069;-91
2022/08/12 05:54:01;;;;;;;11.30;3.35;;;;;;;18.99;59.14;99462.91;6100123;23;20006;-90
2022/08/12 05:56:52;;;;;;;3.80;2.88;;;;;;;19.27;58.87;99489.84;6143207;23;20085;-91
2022/08/12 05:59:20;;;;;;;4.90;3.65;;;;;;;19.41;58.50;99456.91;6146320;23;20066;-88
2022/08/12 06:01:47;;;;;;;3.53;2.33;;;;;;;19.31;58.22;99439.72;6123932;23;20026;-93
2022/08/12 06:04:15;;;;;;;9.02;3.00;;;;;;;19.37;58.57;99454.03;6126910;23;20455;-90
2022/08/12 06:06:41;;;;;;;4.47;2.63;;;;;;;19.67;57.28;99445.88;6126298;23;20050;-93
2022/08/12 06:09:09;;;;;;;6.07;3.10;;;;;;;19.95;56.90;99458.00;6100529;23;20005;-91
2022/08/12 06:11:36;;;;;;;6.60;3.03;;;;;;;19.93;56.50;99451.28;6127278;23;20028;-93
2022/08/12 06:14:02;;;;;;;5.10;2.78;;;;;;;19.97;56.78;99453.00;6106811;23;20006;-93
2022/08/12 06:16:28;;;;;;;3.83;2.90;;;;;;;20.19;56.20;99453.84;6101988;23;20093;-91
2022/08/12 06:18:53;;;;;;;3.45;2.25;;;;;;;20.27;56.38;99450.28;6100417;23;20006;-89
2022/08/12 06:21:22;;;;;;;6.63;5.88;;;;;;;20.35;55.58;99438.47;6100449;23;20005;-90
2022/08/12 06:23:47;;;;;;;5.03;2.55;;;;;;;20.77;54.82;99479.59;6101969;23;20009;-90
2022/08/12 06:26:15;;;;;;;4.47;2.40;;;;;;;20.77;54.25;99457.69;6101334;23;20006;-93
2022/08/12 06:28:41;;;;;;;6.70;2.50;;;;;;;20.82;53.87;99453.94;6103991;23;20001;-93
2022/08/12 06:31:07;;;;;;;5.25;2.30;;;;;;;21.13;52.99;99461.72;6100845;23;20429;-88
2022/08/12 06:33:33;;;;;;;6.25;2.85;;;;;;;21.29;53.53;99469.28;6121492;23;19998;-89
2022/08/12 06:36:00;;;;;;;5.72;2.67;;;;;;;21.44;52.46;99457.72;6101083;23;20006;-95
2022/08/12 06:38:26;;;;;;;6.30;3.33;;;;;;;21.53;51.23;99446.66;6127642;23;20009;-90
2022/08/12 06:43:43;;;;;;;5.40;2.67;;;;;;;21.90;51.04;99463.16;6106215;23;20443;-88
2022/08/12 06:46:10;;;;;;;4.65;2.50;;;;;;;22.06;50.75;99455.03;6104077;23;20016;-90
2022/08/12 06:48:36;;;;;;;2.80;1.90;;;;;;;22.26;49.77;99453.34;6077058;23;20002;-89
2022/08/12 06:51:02;;;;;;;3.97;2.67;;;;;;;22.41;49.24;99441.63;6103231;23;20384;-91
2022/08/12 06:53:27;;;;;;;4.70;2.65;;;;;;;22.55;48.93;99453.03;6103531;23;19998;-89
2022/08/12 06:55:56;;;;;;;3.10;2.10;;;;;;;22.75;48.00;99454.03;6101008;23;20010;-88
2022/08/12 06:58:24;;;;;;;8.73;4.07;;;;;;;22.90;47.87;99452.47;6078756;23;20001;-88
2022/08/12 07:00:50;;;;;;;6.40;3.38;;;;;;;23.10;47.83;99452.69;6101899;23;20076;-89
2022/08/12 07:03:26;;;;;;;4.22;3.33;;;;;;;23.09;46.86;99438.13;6076855;23;20034;-89
2022/08/12 07:05:52;;;;;;;4.28;2.40;;;;;;;23.19;46.01;99445.84;6104158;23;20009;-89
2022/08/12 07:08:18;;;;;;;3.40;2.28;;;;;;;23.19;45.98;99447.81;6077061;23;20001;-88
2022/08/12 07:10:55;;;;;;;2.97;2.17;;;;;;;23.38;46.37;99447.13;6100780;23;20066;-88
2022/08/12 07:13:21;;;;;;;3.60;2.22;;;;;;;23.39;45.56;99441.28;6078671;23;20002;-90
2022/08/12 07:15:46;;;;;;;3.60;2.55;;;;;;;23.47;45.88;99445.03;6076683;23;20025;-89
2022/08/12 07:18:15;;;;;;;3.95;3.03;;;;;;;23.58;45.08;99440.59;6077469;23;20056;-88
2022/08/12 07:20:42;;;;;;;3.65;2.20;;;;;;;23.52;45.71;99447.50;6101688;23;20463;-92
2022/08/12 07:23:07;;;;;;;3.35;2.20;;;;;;;23.62;45.14;99424.19;6079822;23;20006;-94
2022/08/12 07:25:33;;;;;;;8.02;3.10;;;;;;;23.84;44.75;99444.78;6105002;23;20064;-94
2022/08/12 07:28:02;;;;;;;3.95;2.83;;;;;;;23.92;45.04;99419.03;6082370;23;20008;-96
2022/08/12 07:30:39;;;;;;;5.57;2.65;;;;;;;24.09;44.41;99436.31;6083102;23;20034;-95
2022/08/12 07:33:09;;;;;;;3.25;1.90;;;;;;;24.09;43.50;99441.81;6085827;23;20511;-94
2022/08/12 07:35:49;;;;;;;3.63;2.40;;;;;;;23.98;44.02;99423.13;6094358;23;20002;-96
2022/08/12 07:38:27;;;;;;;3.78;2.83;;;;;;;24.29;43.73;99448.19;6111075;23;20001;-91
2022/08/12 07:41:09;;;;;;;3.30;2.15;;;;;;;24.39;43.32;99450.38;6130237;23;20002;-95
2022/08/12 07:43:39;;;;;;;2.85;2.17;;;;;;;24.44;42.44;99422.56;6105740;23;20125;-94
2022/08/12 07:46:06;;;;;;;4.53;2.38;;;;;;;24.60;43.09;99439.06;6081953;23;20436;-94
2022/08/12 07:48:43;;;;;;;3.17;1.88;;;;;;;24.71;42.00;99431.81;6082081;23;19998;-95
2022/08/12 07:51:08;;;;;;;3.60;2.38;;;;;;;24.55;41.96;99409.03;6130267;23;20005;-93
2022/08/12 07:53:36;;;;;;;110.20;64.20;;;;;;;24.64;42.19;99419.88;6103943;23;20021;-94
2022/08/12 07:56:03;;;;;;;12.80;8.65;;;;;;;24.70;41.68;99429.44;6080044;23;19997;-95
2022/08/12 07:58:28;;;;;;;9.50;6.70;;;;;;;24.81;41.46;99427.69;6082041;23;20012;-94
2022/08/12 08:01:09;;;;;;;;;;;;;;;;;;;;;
2022/08/12 08:06:30;;;;;;;2.17;1.63;;;;;;;24.93;40.03;99429.50;6105814;23;20086;-93
2022/08/12 08:09:04;;;;;;;8.05;5.93;;;;;;;25.07;40.93;99423.44;6078867;23;20025;-92
2022/08/12 08:14:32;;;;;;;2.60;1.77;;;;;;;25.33;39.69;99411.75;6106743;23;20082;-96
2022/08/12 08:17:07;;;;;;;5.53;4.10;;;;;;;25.56;40.10;99423.56;6076797;23;20451;-94
2022/08/12 08:19:35;;;;;;;2.92;1.83;;;;;;;25.49;38.92;99423.47;6082600;23;20002;-95
2022/08/12 08:22:39;;;;;;;3.15;2.00;;;;;;;25.67;39.32;99425.72;6083621;23;20016;-95
2022/08/12 08:25:06;;;;;;;4.05;3.30;;;;;;;25.50;38.94;99403.00;6088032;23;20436;-94
2022/08/12 08:27:44;;;;;;;3.50;2.20;;;;;;;25.32;39.55;99399.94;6082079;23;20071;-93
2022/08/12 08:30:11;;;;;;;2.47;1.80;;;;;;;25.51;38.16;99399.09;6085703;23;19998;-96
2022/08/12 08:32:36;;;;;;;4.30;2.95;;;;;;;25.20;38.10;99380.81;6083257;23;20006;-95
2022/08/12 08:35:02;;;;;;;2.80;1.77;;;;;;;25.45;37.28;99389.53;6111424;23;20006;-95
2022/08/12 08:37:30;;;;;;;3.47;1.60;;;;;;;25.53;36.41;99371.94;6084111;23;20421;-95
2022/08/12 08:42:35;;;;;;;4.43;1.95;;;;;;;25.69;37.29;99382.00;6111109;23;20002;-94
2022/08/12 08:42:51;;;;;;;4.68;2.05;;;;;;;25.74;37.53;99367.94;6129560;23;20109;-94
2022/08/12 08:45:19;;;;;;;2.55;1.55;;;;;;;25.81;36.42;99365.25;6132651;23;20006;-94
2022/08/12 08:47:53;;;;;;;2.53;1.70;;;;;;;25.85;36.18;99368.09;6087616;23;20013;-93
2022/08/12 08:50:19;;;;;;;5.03;1.90;;;;;;;26.08;36.34;99376.31;6111665;23;20006;-96
2022/08/12 08:52:59;;;;;;;3.50;2.30;;;;;;;26.16;37.19;99366.97;6108840;23;20002;-94
2022/08/12 08:55:25;;;;;;;2.28;1.38;;;;;;;26.30;33.90;99364.41;6135025;23;20006;-93
2022/08/12 09:00:53;;;;;;;;;;;;;;;;;;;;;
2022/08/12 09:03:19;;;;;;;2.17;1.45;;;;;;;26.42;34.09;99355.09;6186249;23;20094;-96
2022/08/12 09:05:45;;;;;;;1.90;1.50;;;;;;;26.64;34.55;99360.88;6172896;23;20000;-95
2022/08/12 09:08:14;;;;;;;4.03;1.90;;;;;;;26.64;34.64;99347.88;6146005;23;20324;-96
2022/08/12 09:10:41;;;;;;;6.85;1.98;;;;;;;26.50;34.22;99342.16;6171850;23;20387;-94
2022/08/12 09:15:55;;;;;;;2.55;1.60;;;;;;;26.46;34.62;99344.88;6189372;23;20136;-95
2022/08/12 09:18:36;;;;;;;3.30;1.55;;;;;;;26.59;35.61;99359.25;6158669;23;20055;-95
2022/08/12 09:21:06;;;;;;;2.95;2.17;;;;;;;26.76;35.78;99336.56;6131404;22;20020;-95
2022/08/12 09:26:53;;;;;;;;;;;;;;;27.15;35.13;99349.97;6202248;23;20008;-95
2022/08/12 09:29:21;;;;;;;3.20;1.73;;;;;;;27.16;34.86;99325.88;6154165;23;19920;-95
2022/08/12 09:31:53;;;;;;;2.40;1.98;;;;;;;27.04;35.07;99327.00;6082672;23;20033;-95
2022/08/12 09:37:40;;;;;;;3.42;1.70;;;;;;;27.24;35.25;99346.91;6050938;23;20037;-96
2022/08/12 09:40:17;;;;;;;7.68;4.22;;;;;;;27.13;35.07;99324.69;6005637;23;20011;-95
2022/08/12 09:45:57;;;;;;;3.15;2.33;;;;;;;27.14;35.58;99342.84;6085048;23;20381;-96
2022/08/12 09:48:29;;;;;;;2.42;1.58;;;;;;;27.28;34.96;99338.66;6108629;23;20027;-94
2022/08/12 09:51:00;;;;;;;;;;;;;;;27.29;35.03;99330.00;6215075;23;20008;-93
2022/08/12 09:54:10;;;;;;;4.07;2.20;;;;;;;27.18;35.13;99318.00;6237912;23;20388;-95
2022/08/12 09:59:34;;;;;;;2.60;1.80;;;;;;;27.11;34.35;99298.59;6217275;22;20019;-94
2022/08/12 10:02:11;;;;;;;2.85;2.05;;;;;;;27.18;34.33;99279.31;6234282;22;20015;-95
2022/08/12 10:04:47;;;;;;;6.82;2.17;;;;;;;27.35;35.17;99297.22;6221809;22;20004;-95
2022/08/12 10:07:32;;;;;;;2.90;2.05;;;;;;;27.38;34.40;99277.91;6246963;22;20027;-95
2022/08/12 10:15:27;;;;;;;2.63;1.92;;;;;;;27.78;34.51;99283.69;6279192;22;20054;-93
2022/08/12 10:17:55;;;;;;;3.75;2.10;;;;;;;27.91;34.25;99287.75;6263901;22;20027;-94
2022/08/12 10:23:17;;;;;;;2.17;1.75;;;;;;;28.04;33.31;99277.13;6272474;22;20449;-95
2022/08/12 10:31:13;;;;;;;2.03;1.70;;;;;;;28.18;33.46;99276.38;6236338;22;20009;-94
2022/08/12 10:39:54;;;;;;;2.60;1.92;;;;;;;28.49;32.32;99266.63;6287089;22;20346;-95
2022/08/12 10:45:08;;;;;;;3.28;2.10;;;;;;;28.62;32.39;99275.38;6242941;22;20011;-94
2022/08/12 10:47:40;;;;;;;3.97;1.88;;;;;;;28.74;31.83;99263.09;6259462;22;20087;-95
2022/08/12 10:50:40;;;;;;;3.33;1.90;;;;;;;29.04;31.32;99281.34;6240987;22;19972;-96
2022/08/12 10:53:11;;;;;;;4.40;2.80;;;;;;;28.97;30.98;99254.41;6289617;22;20086;-96
2022/08/12 10:55:44;;;;;;;2.53;1.90;;;;;;;28.89;31.43;99263.91;6243964;22;20003;-95
2022/08/12 10:58:24;;;;;;;3.10;2.33;;;;;;;28.96;32.28;99250.06;6217966;22;20086;-96
2022/08/12 11:00:51;;;;;;;2.65;1.88;;;;;;;29.11;31.34;99239.78;6265214;22;20014;-96
2022/08/12 11:03:20;;;;;;;3.78;2.30;;;;;;;29.20;31.18;99232.66;6218396;22;20106;-96
2022/08/12 11:05:49;;;;;;;3.72;1.98;;;;;;;29.03;31.04;99236.19;6240427;22;20010;-95
2022/08/12 11:08:22;;;;;;;2.30;1.45;;;;;;;29.29;30.66;99229.47;6211078;22;20008;-96
2022/08/12 11:10:54;;;;;;;2.17;1.60;;;;;;;29.35;30.72;99238.19;6268988;22;20039;-96
2022/08/12 11:13:43;;;;;;;2.88;1.95;;;;;;;29.15;30.51;99235.81;6212483;23;20008;-96
2022/08/12 11:16:12;;;;;;;3.35;1.45;;;;;;;28.92;29.55;99243.72;6180959;23;20080;-96
2022/08/12 11:18:41;;;;;;;1.73;1.45;;;;;;;28.87;29.83;99235.81;6203979;23;20043;-96
2022/08/12 11:21:11;;;;;;;1.70;1.40;;;;;;;28.92;29.53;99238.97;6173014;23;20028;-96
2022/08/12 11:23:37;;;;;;;2.72;1.85;;;;;;;28.89;29.77;99230.63;6179280;23;20036;-95
2022/08/12 11:31:11;;;;;;;22.00;16.05;;;;;;;28.69;29.79;99208.88;6215326;22;20021;-94
2022/08/12 11:33:36;;;;;;;3.75;2.35;;;;;;;28.90;30.13;99210.06;6172448;23;20485;-96
2022/08/12 11:36:07;;;;;;;4.32;2.53;;;;;;;28.80;28.65;99204.13;6149061;23;19992;-96
2022/08/12 11:38:36;;;;;;;1.73;1.50;;;;;;;28.86;29.48;99207.28;6150622;23;20480;-96
2022/08/12 11:41:04;;;;;;;1.70;1.40;;;;;;;28.99;29.19;99191.84;6219127;22;20027;-96
2022/08/12 11:43:31;;;;;;;1.58;1.30;;;;;;;29.11;28.86;99195.41;6203285;23;19996;-96
2022/08/12 11:45:58;;;;;;;2.75;1.70;;;;;;;29.30;29.70;99197.78;6231360;23;20423;-95
2022/08/12 11:48:25;;;;;;;2.20;1.58;;;;;;;29.23;29.25;99200.56;6206161;23;20080;-95
2022/08/12 11:50:54;;;;;;;3.08;1.88;;;;;;;29.40;30.24;99198.91;6205381;23;20434;-96
2022/08/12 11:53:22;;;;;;;3.58;2.45;;;;;;;29.29;30.48;99187.84;6207013;23;20022;-95
2022/08/12 11:58:24;;;;;;;2.88;1.70;;;;;;;29.45;29.24;99201.31;6254561;22;20020;-95
2022/08/12 12:00:52;;;;;;;2.80;1.55;;;;;;;29.49;29.29;99184.63;6204929;23;20000;-95
2022/08/12 12:03:18;;;;;;;3.95;1.70;;;;;;;29.41;29.23;99183.88;6203025;23;20022;-95
2022/08/12 12:05:47;;;;;;;3.20;1.50;;;;;;;29.29;28.57;99178.75;6177671;23;19996;-95
2022/08/12 12:08:31;;;;;;;3.88;1.58;;;;;;;29.36;28.25;99189.81;6179006;23;20354;-96
2022/08/12 12:11:14;;;;;;;2.22;1.88;;;;;;;29.46;29.15;99179.91;6202455;23;20427;-96
2022/08/12 12:13:40;;;;;;;1.77;1.50;;;;;;;29.34;28.78;99172.78;6167246;23;20001;-95
2022/08/12 12:16:05;;;;;;;2.00;1.45;;;;;;;29.59;28.96;99178.25;6172133;23;20004;-94
2022/08/12 12:18:41;;;;;;;2.88;2.17;;;;;;;29.64;28.38;99175.06;6153535;23;20009;-96
2022/08/12 12:21:08;;;;;;;2.28;1.55;;;;;;;29.46;28.96;99168.81;6125022;23;20077;-90
2022/08/12 12:23:39;;;;;;;1.58;1.33;;;;;;;29.63;28.22;99162.38;6100502;23;20009;-92
2022/08/12 12:26:06;;;;;;;2.78;1.63;;;;;;;29.97;27.69;99164.66;6076850;23;20401;-89
2022/08/12 12:28:35;;;;;;;2.75;1.80;;;;;;;30.05;27.48;99154.28;6099594;23;20005;-88
2022/08/12 12:31:02;;;;;;;4.05;2.30;;;;;;;30.36;27.66;99149.72;6099968;23;20022;-88
2022/08/12 12:33:32;;;;;;;2.47;1.40;;;;;;;30.62;26.80;99153.91;6098867;23;20012;-88
2022/08/12 12:36:26;;;;;;;2.33;1.48;;;;;;;30.47;25.69;99175.47;6098642;23;20010;-88
2022/08/12 12:39:06;;;;;;;3.92;1.58;;;;;;;30.41;25.79;99155.66;6039224;23;20015;-89
2022/08/12 12:41:31;;;;;;;2.10;1.55;;;;;;;30.00;27.09;99164.59;6048032;23;20089;-89
2022/08/12 12:44:41;;;;;;;4.25;1.92;;;;;;;30.12;26.86;99168.13;6065684;23;20094;-91
2022/08/12 12:47:10;;;;;;;2.75;1.70;;;;;;;29.93;27.45;99148.00;6043908;23;20006;-94
2022/08/12 12:49:39;;;;;;;2.85;1.60;;;;;;;30.05;26.76;99166.19;6044889;23;19999;-92
2022/08/12 12:52:45;;;;;;;2.15;1.40;;;;;;;30.01;27.08;99168.19;5996333;23;20453;-92
2022/08/12 12:55:20;;;;;;;2.42;1.70;;;;;;;29.76;27.31;99143.31;6067629;23;19998;-93
2022/08/12 12:58:18;;;;;;;;;;;;;;;;;;;;;
2022/08/12 13:01:01;;;;;;;3.50;1.88;;;;;;;30.00;26.71;99142.41;6092238;23;20022;-91
2022/08/12 13:03:56;;;;;;;3.25;1.92;;;;;;;30.06;27.01;99131.66;6092120;23;20051;-96
2022/08/12 13:06:28;;;;;;;2.08;1.45;;;;;;;30.34;25.77;99130.72;6060046;23;20020;-94
2022/08/12 13:09:03;;;;;;;2.75;1.30;;;;;;;30.41;25.68;99125.09;6022842;23;20007;-96
2022/08/12 13:11:39;;;;;;;1.92;1.50;;;;;;;30.31;25.77;99117.63;6134704;23;20018;-96
2022/08/12 13:14:07;;;;;;;2.20;1.52;;;;;;;30.40;26.47;99117.16;6133334;23;20036;-96
2022/08/12 13:16:35;;;;;;;2.20;1.40;;;;;;;30.42;26.04;99132.25;6152062;23;20005;-94
2022/08/12 13:19:15;;;;;;;2.30;1.33;;;;;;;30.62;25.85;99132.44;6202577;23;20008;-96
2022/08/12 13:22:16;;;;;;;2.17;1.50;;;;;;;30.73;25.84;99134.34;6201044;23;20033;-95
2022/08/12 13:24:30;;;;;;;2.13;1.30;;;;;;;30.76;25.47;99119.66;6198905;23;20018;-94
2022/08/12 13:26:58;;;;;;;3.67;1.80;;;;;;;30.86;25.44;99107.63;6171857;23;20028;-95
2022/08/12 13:29:42;;;;;;;;;;;;;;;;;;;;;
2022/08/12 13:32:12;;;;;;;5.15;2.47;;;;;;;31.42;25.34;99110.22;6162777;23;20012;-95
2022/08/12 13:35:08;;;;;;;3.58;1.73;;;;;;;31.48;25.05;99133.63;6158610;23;19989;-94
2022/08/12 13:37:39;;;;;;;1.77;1.30;;;;;;;31.33;25.30;99102.34;6184345;23;20015;-95
2022/08/12 13:40:18;;;;;;;2.20;1.33;;;;;;;31.21;25.34;99122.38;6215837;23;20144;-95
2022/08/12 13:42:57;;;;;;;;;;;;;;;;;;;;;
2022/08/12 13:45:30;;;;;;;5.10;2.17;;;;;;;31.16;25.09;99109.72;6217491;23;19996;-96
2022/08/12 13:47:59;;;;;;;3.38;1.90;;;;;;;31.34;25.11;99098.38;6212876;23;19976;-95
2022/08/12 13:50:36;;;;;;;2.97;1.50;;;;;;;31.49;25.27;99121.28;6210168;23;19996;-96
2022/08/12 13:53:03;;;;;;;6.50;1.70;;;;;;;31.80;24.49;99127.63;6204493;23;20007;-96
2022/08/12 13:55:29;;;;;;;2.38;1.58;;;;;;;31.64;25.04;99105.19;6182146;23;20059;-93
2022/08/12 13:58:04;;;;;;;2.13;1.65;;;;;;;31.84;24.23;99116.44;6216801;23;20031;-96
2022/08/12 14:00:36;;;;;;;2.13;1.52;;;;;;;31.73;24.90;99113.00;6211747;23;20012;-96
2022/08/12 14:03:07;;;;;;;3.90;1.75;;;;;;;31.85;24.62;99086.59;6213132;23;20001;-96
2022/08/12 14:05:45;;;;;;;3.70;2.85;;;;;;;32.04;23.68;99083.16;6214004;22;19988;-96
2022/08/12 14:08:26;;;;;;;2.13;1.77;;;;;;;32.00;23.66;99076.84;6218592;22;20000;-96
2022/08/12 14:10:54;;;;;;;;;;;;;;;32.31;23.48;99097.06;6239032;22;20015;-96
2022/08/12 14:13:40;;;;;;;4.53;1.70;;;;;;;32.18;22.90;99074.56;6266352;22;19943;-93
2022/08/12 14:16:16;;;;;;;3.20;1.90;;;;;;;32.40;23.09;99071.44;6194934;22;20001;-96
2022/08/12 14:18:42;;;;;;;2.53;1.50;;;;;;;32.59;22.79;99086.66;6235244;22;20009;-95
2022/08/12 14:21:14;;;;;;;1.98;1.60;;;;;;;32.67;22.70;99085.34;6200516;23;20007;-95